sensor_id;sensor_type;location;lat;lon;timestamp;pressure;altitude;pressure_sealevel;temperature;humidity
72465;BME280;60471;52.150;4.508;2024-02-15T00:01:15;101311.72;;;13.14;100.00
72465;BME280;60471;52.150;4.508;2024-02-15T00:03:41;101328.91;;;12.88;100.00
72465;BME280;60471;52.150;4.508;2024-02-15T00:06:08;101333.19;;;12.90;100.00
72465;BME280;60471;52.150;4.508;2024-02-15T00:08:34;101318.88;;;12.94;100.00
72465;BME280;60471;52.150;4.508;2024-02-15T00:11:00;101326.03;;;12.92;100.00
72465;BME280;60471;52.150;4.508;2024-02-15T00:13:27;101312.31;;;12.84;100.00
72465;BME280;60471;52.150;4.508;2024-02-15T00:15:53;101314.66;;;13.07;100.00
72465;BME280;60471;52.150;4.508;2024-02-15T00:18:19;101311.06;;;13.09;100.00
72465;BME280;60471;52.150;4.508;2024-02-15T00:20:45;101300.81;;;13.02;100.00
72465;BME280;60471;52.150;4.508;2024-02-15T00:23:11;101300.56;;;13.07;100.00
72465;BME280;60471;52.150;4.508;2024-02-15T00:25:38;101311.22;;;13.05;100.00
72465;BME280;60471;52.150;4.508;2024-02-15T00:28:04;101310.22;;;13.08;100.00
72465;BME280;60471;52.150;4.508;2024-02-15T00:30:31;101303.38;;;13.04;100.00
72465;BME280;60471;52.150;4.508;2024-02-15T00:32:57;101306.78;;;13.06;100.00
72465;BME280;60471;52.150;4.508;2024-02-15T00:35:23;101302.19;;;13.10;100.00
72465;BME280;60471;52.150;4.508;2024-02-15T00:37:50;101299.69;;;13.06;100.00
72465;BME280;60471;52.150;4.508;2024-02-15T00:40:17;101303.66;;;12.98;100.00
72465;BME280;60471;52.150;4.508;2024-02-15T00:42:43;101297.13;;;13.05;100.00
72465;BME280;60471;52.150;4.508;2024-02-15T00:45:09;101299.53;;;13.10;100.00
72465;BME280;60471;52.150;4.508;2024-02-15T00:47:38;101292.78;;;13.04;100.00
72465;BME280;60471;52.150;4.508;2024-02-15T00:50:08;101297.34;;;13.00;100.00
72465;BME280;60471;52.150;4.508;2024-02-15T00:52:35;101297.81;;;13.09;100.00
72465;BME280;60471;52.150;4.508;2024-02-15T00:55:02;101292.44;;;13.10;100.00
72465;BME280;60471;52.150;4.508;2024-02-15T00:57:28;101292.69;;;13.05;100.00
72465;BME280;60471;52.150;4.508;2024-02-15T00:59:54;101300.84;;;13.01;100.00
72465;BME280;60471;52.150;4.508;2024-02-15T01:02:20;101299.88;;;13.03;100.00
72465;BME280;60471;52.150;4.508;2024-02-15T01:04:47;101291.97;;;13.02;100.00
72465;BME280;60471;52.150;4.508;2024-02-15T01:07:13;101289.97;;;13.07;100.00
72465;BME280;60471;52.150;4.508;2024-02-15T01:09:40;101294.41;;;13.06;100.00
72465;BME280;60471;52.150;4.508;2024-02-15T01:12:06;101298.75;;;13.07;100.00
72465;BME280;60471;52.150;4.508;2024-02-15T01:14:32;101289.28;;;13.21;100.00
72465;BME280;60471;52.150;4.508;2024-02-15T01:16:58;101291.19;;;13.17;100.00
72465;BME280;60471;52.150;4.508;2024-02-15T01:19:24;101278.97;;;13.15;100.00
72465;BME280;60471;52.150;4.508;2024-02-15T01:21:51;101282.56;;;13.14;100.00
72465;BME280;60471;52.150;4.508;2024-02-15T01:24:17;101279.13;;;13.12;100.00
72465;BME280;60471;52.150;4.508;2024-02-15T01:26:43;101273.72;;;13.13;100.00
72465;BME280;60471;52.150;4.508;2024-02-15T01:29:09;101274.63;;;13.14;100.00
72465;BME280;60471;52.150;4.508;2024-02-15T01:31:38;101282.47;;;13.15;100.00
72465;BME280;60471;52.150;4.508;2024-02-15T01:34:04;101277.09;;;13.17;100.00
72465;BME280;60471;52.150;4.508;2024-02-15T01:36:30;101269.00;;;13.20;100.00
72465;BME280;60471;52.150;4.508;2024-02-15T01:38:57;101275.16;;;13.20;100.00
72465;BME280;60471;52.150;4.508;2024-02-15T01:41:23;101276.50;;;13.29;100.00
72465;BME280;60471;52.150;4.508;2024-02-15T01:43:49;101269.22;;;13.32;100.00
72465;BME280;60471;52.150;4.508;2024-02-15T01:46:16;101264.78;;;13.33;100.00
72465;BME280;60471;52.150;4.508;2024-02-15T01:48:43;101263.69;;;13.37;100.00
72465;BME280;60471;52.150;4.508;2024-02-15T01:51:12;101262.13;;;13.33;100.00
72465;BME280;60471;52.150;4.508;2024-02-15T01:53:42;101260.19;;;13.37;100.00
72465;BME280;60471;52.150;4.508;2024-02-15T01:56:12;101246.00;;;13.38;100.00
72465;BME280;60471;52.150;4.508;2024-02-15T01:58:40;101241.13;;;13.46;100.00
72465;BME280;60471;52.150;4.508;2024-02-15T02:01:09;101241.19;;;13.28;100.00
72465;BME280;60471;52.150;4.508;2024-02-15T02:03:38;101255.69;;;13.21;100.00
72465;BME280;60471;52.150;4.508;2024-02-15T02:06:05;101244.22;;;13.21;100.00
72465;BME280;60471;52.150;4.508;2024-02-15T02:08:31;101254.97;;;13.18;100.00
72465;BME280;60471;52.150;4.508;2024-02-15T02:10:59;101237.75;;;13.26;100.00
72465;BME280;60471;52.150;4.508;2024-02-15T02:13:27;101247.44;;;13.27;100.00
72465;BME280;60471;52.150;4.508;2024-02-15T02:15:53;101244.06;;;13.24;100.00
72465;BME280;60471;52.150;4.508;2024-02-15T02:18:20;101244.16;;;13.22;100.00
72465;BME280;60471;52.150;4.508;2024-02-15T02:20:46;101238.44;;;13.30;100.00
72465;BME280;60471;52.150;4.508;2024-02-15T02:23:16;101235.88;;;13.28;100.00
72465;BME280;60471;52.150;4.508;2024-02-15T02:25:45;101241.50;;;13.22;100.00
72465;BME280;60471;52.150;4.508;2024-02-15T02:28:15;101244.69;;;13.29;100.00
72465;BME280;60471;52.150;4.508;2024-02-15T02:30:42;101234.78;;;13.32;100.00
72465;BME280;60471;52.150;4.508;2024-02-15T02:33:12;101236.66;;;13.30;100.00
72465;BME280;60471;52.150;4.508;2024-02-15T02:35:45;101230.59;;;13.28;100.00
72465;BME280;60471;52.150;4.508;2024-02-15T02:38:12;101228.97;;;13.26;100.00
72465;BME280;60471;52.150;4.508;2024-02-15T02:40:39;101231.75;;;13.23;100.00
72465;BME280;60471;52.150;4.508;2024-02-15T02:43:05;101231.97;;;13.36;100.00
72465;BME280;60471;52.150;4.508;2024-02-15T02:45:31;101224.16;;;13.32;100.00
72465;BME280;60471;52.150;4.508;2024-02-15T02:47:58;101225.59;;;13.22;100.00
72465;BME280;60471;52.150;4.508;2024-02-15T02:50:24;101236.81;;;13.27;100.00
72465;BME280;60471;52.150;4.508;2024-02-15T02:52:51;101233.84;;;13.33;100.00
72465;BME280;60471;52.150;4.508;2024-02-15T02:55:18;101222.47;;;13.31;100.00
72465;BME280;60471;52.150;4.508;2024-02-15T02:57:44;101227.00;;;13.29;100.00
72465;BME280;60471;52.150;4.508;2024-02-15T03:00:12;101222.38;;;13.33;100.00
72465;BME280;60471;52.150;4.508;2024-02-15T03:02:43;101229.72;;;13.28;100.00
72465;BME280;60471;52.150;4.508;2024-02-15T03:05:10;101225.28;;;13.28;100.00
72465;BME280;60471;52.150;4.508;2024-02-15T03:07:37;101226.91;;;13.31;100.00
72465;BME280;60471;52.150;4.508;2024-02-15T03:10:07;101229.91;;;13.25;100.00
72465;BME280;60471;52.150;4.508;2024-02-15T03:12:35;101229.31;;;13.18;100.00
72465;BME280;60471;52.150;4.508;2024-02-15T03:15:03;101228.38;;;13.37;100.00
72465;BME280;60471;52.150;4.508;2024-02-15T03:17:30;101236.75;;;13.29;100.00
72465;BME280;60471;52.150;4.508;2024-02-15T03:19:59;101232.91;;;13.17;100.00
72465;BME280;60471;52.150;4.508;2024-02-15T03:22:28;101238.06;;;13.03;100.00
72465;BME280;60471;52.150;4.508;2024-02-15T03:24:55;101220.44;;;13.02;100.00
72465;BME280;60471;52.150;4.508;2024-02-15T03:27:21;101214.66;;;13.11;100.00
72465;BME280;60471;52.150;4.508;2024-02-15T03:29:49;101214.00;;;13.25;100.00
72465;BME280;60471;52.150;4.508;2024-02-15T03:32:15;101232.22;;;13.14;100.00
72465;BME280;60471;52.150;4.508;2024-02-15T03:34:42;101211.03;;;13.14;100.00
72465;BME280;60471;52.150;4.508;2024-02-15T03:37:08;101219.19;;;13.09;100.00
72465;BME280;60471;52.150;4.508;2024-02-15T03:39:35;101225.53;;;13.06;100.00
72465;BME280;60471;52.150;4.508;2024-02-15T03:42:01;101230.72;;;13.08;100.00
72465;BME280;60471;52.150;4.508;2024-02-15T03:44:28;101225.91;;;12.99;100.00
72465;BME280;60471;52.150;4.508;2024-02-15T03:46:54;101218.50;;;13.05;100.00
72465;BME280;60471;52.150;4.508;2024-02-15T03:49:21;101213.84;;;12.93;100.00
72465;BME280;60471;52.150;4.508;2024-02-15T03:51:48;101210.72;;;12.85;100.00
72465;BME280;60471;52.150;4.508;2024-02-15T03:54:15;101217.81;;;12.85;100.00
72465;BME280;60471;52.150;4.508;2024-02-15T03:56:50;101197.88;;;12.77;100.00
72465;BME280;60471;52.150;4.508;2024-02-15T03:59:20;101211.13;;;12.77;100.00
72465;BME280;60471;52.150;4.508;2024-02-15T04:01:52;101208.69;;;12.90;100.00
72465;BME280;60471;52.150;4.508;2024-02-15T04:04:20;101199.75;;;12.93;100.00
72465;BME280;60471;52.150;4.508;2024-02-15T04:06:50;101203.25;;;12.76;100.00
72465;BME280;60471;52.150;4.508;2024-02-15T04:09:19;101210.19;;;12.78;100.00
72465;BME280;60471;52.150;4.508;2024-02-15T04:11:49;101215.19;;;12.85;100.00
72465;BME280;60471;52.150;4.508;2024-02-15T04:14:19;101217.75;;;12.86;100.00
72465;BME280;60471;52.150;4.508;2024-02-15T04:16:45;101205.09;;;12.91;100.00
72465;BME280;60471;52.150;4.508;2024-02-15T04:19:11;101201.75;;;12.88;100.00
72465;BME280;60471;52.150;4.508;2024-02-15T04:21:38;101208.84;;;12.87;100.00
72465;BME280;60471;52.150;4.508;2024-02-15T04:24:06;101214.50;;;12.81;100.00
72465;BME280;60471;52.150;4.508;2024-02-15T04:26:32;101218.13;;;12.78;100.00
72465;BME280;60471;52.150;4.508;2024-02-15T04:28:59;101214.25;;;12.86;100.00
72465;BME280;60471;52.150;4.508;2024-02-15T04:31:25;101218.13;;;12.78;100.00
72465;BME280;60471;52.150;4.508;2024-02-15T04:33:55;101216.50;;;12.76;100.00
72465;BME280;60471;52.150;4.508;2024-02-15T04:36:21;101211.03;;;12.79;100.00
72465;BME280;60471;52.150;4.508;2024-02-15T04:38:52;101215.34;;;12.82;100.00
72465;BME280;60471;52.150;4.508;2024-02-15T04:41:18;101213.47;;;12.84;100.00
72465;BME280;60471;52.150;4.508;2024-02-15T04:43:46;101207.63;;;12.77;100.00
72465;BME280;60471;52.150;4.508;2024-02-15T04:46:13;101212.63;;;12.83;100.00
72465;BME280;60471;52.150;4.508;2024-02-15T04:48:41;101215.56;;;12.77;100.00
72465;BME280;60471;52.150;4.508;2024-02-15T04:51:09;101209.56;;;12.73;100.00
72465;BME280;60471;52.150;4.508;2024-02-15T04:53:36;101204.97;;;12.77;100.00
72465;BME280;60471;52.150;4.508;2024-02-15T04:56:05;101192.38;;;12.82;100.00
72465;BME280;60471;52.150;4.508;2024-02-15T04:58:37;101184.47;;;12.81;100.00
72465;BME280;60471;52.150;4.508;2024-02-15T05:01:14;101162.38;;;12.82;100.00
72465;BME280;60471;52.150;4.508;2024-02-15T05:03:42;101158.00;;;12.81;100.00
72465;BME280;60471;52.150;4.508;2024-02-15T05:06:10;101144.84;;;12.79;100.00
72465;BME280;60471;52.150;4.508;2024-02-15T05:08:39;101144.22;;;12.74;100.00
72465;BME280;60471;52.150;4.508;2024-02-15T05:11:09;101135.59;;;12.70;100.00
72465;BME280;60471;52.150;4.508;2024-02-15T05:13:45;101132.41;;;12.64;100.00
72465;BME280;60471;52.150;4.508;2024-02-15T05:16:12;101170.94;;;12.69;100.00
72465;BME280;60471;52.150;4.508;2024-02-15T05:18:39;101169.09;;;12.71;100.00
72465;BME280;60471;52.150;4.508;2024-02-15T05:21:08;101174.13;;;12.76;100.00
72465;BME280;60471;52.150;4.508;2024-02-15T05:23:40;101160.81;;;12.77;100.00
72465;BME280;60471;52.150;4.508;2024-02-15T05:26:08;101174.03;;;12.77;100.00
72465;BME280;60471;52.150;4.508;2024-02-15T05:28:35;101160.72;;;12.79;100.00
72465;BME280;60471;52.150;4.508;2024-02-15T05:31:18;101172.13;;;12.81;100.00
72465;BME280;60471;52.150;4.508;2024-02-15T05:33:47;101156.44;;;12.76;100.00
72465;BME280;60471;52.150;4.508;2024-02-15T05:36:14;101148.50;;;12.76;100.00
72465;BME280;60471;52.150;4.508;2024-02-15T05:38:41;101145.81;;;12.61;100.00
72465;BME280;60471;52.150;4.508;2024-02-15T05:41:11;101147.56;;;12.77;100.00
72465;BME280;60471;52.150;4.508;2024-02-15T05:43:38;101138.00;;;12.75;100.00
72465;BME280;60471;52.150;4.508;2024-02-15T05:46:05;101143.22;;;12.76;100.00
72465;BME280;60471;52.150;4.508;2024-02-15T05:48:32;101135.59;;;12.70;100.00
72465;BME280;60471;52.150;4.508;2024-02-15T05:51:07;101142.69;;;12.70;100.00
72465;BME280;60471;52.150;4.508;2024-02-15T05:53:34;101146.78;;;12.75;100.00
72465;BME280;60471;52.150;4.508;2024-02-15T05:56:08;101152.00;;;12.77;100.00
72465;BME280;60471;52.150;4.508;2024-02-15T05:58:39;101151.63;;;12.67;100.00
72465;BME280;60471;52.150;4.508;2024-02-15T06:01:06;101144.06;;;12.77;100.00
72465;BME280;60471;52.150;4.508;2024-02-15T06:03:34;101133.47;;;12.77;100.00
72465;BME280;60471;52.150;4.508;2024-02-15T06:06:04;101155.75;;;12.73;100.00
72465;BME280;60471;52.150;4.508;2024-02-15T06:08:34;101148.75;;;12.72;100.00
72465;BME280;60471;52.150;4.508;2024-02-15T06:11:02;101133.84;;;12.69;100.00
72465;BME280;60471;52.150;4.508;2024-02-15T06:13:29;101133.72;;;12.72;100.00
72465;BME280;60471;52.150;4.508;2024-02-15T06:15:56;101120.00;;;12.82;100.00
72465;BME280;60471;52.150;4.508;2024-02-15T06:18:29;101125.78;;;12.72;100.00
72465;BME280;60471;52.150;4.508;2024-02-15T06:20:59;101131.47;;;12.65;100.00
72465;BME280;60471;52.150;4.508;2024-02-15T06:23:26;101128.44;;;12.72;100.00
72465;BME280;60471;52.150;4.508;2024-02-15T06:25:55;101122.19;;;12.73;100.00
72465;BME280;60471;52.150;4.508;2024-02-15T06:28:22;101130.72;;;12.78;100.00
72465;BME280;60471;52.150;4.508;2024-02-15T06:31:08;101137.38;;;12.70;100.00
72465;BME280;60471;52.150;4.508;2024-02-15T06:33:53;101141.66;;;12.72;100.00
72465;BME280;60471;52.150;4.508;2024-02-15T06:36:59;101131.22;;;12.69;100.00
72465;BME280;60471;52.150;4.508;2024-02-15T06:39:44;101140.25;;;12.65;100.00
72465;BME280;60471;52.150;4.508;2024-02-15T06:42:15;101146.56;;;12.63;100.00
72465;BME280;60471;52.150;4.508;2024-02-15T06:44:44;101147.44;;;12.63;100.00
72465;BME280;60471;52.150;4.508;2024-02-15T06:47:11;101143.28;;;12.75;100.00
72465;BME280;60471;52.150;4.508;2024-02-15T06:49:41;101139.31;;;12.84;100.00
72465;BME280;60471;52.150;4.508;2024-02-15T06:52:09;101153.03;;;12.74;100.00
72465;BME280;60471;52.150;4.508;2024-02-15T06:54:38;101153.19;;;12.71;100.00
72465;BME280;60471;52.150;4.508;2024-02-15T06:57:05;101154.81;;;12.74;100.00
72465;BME280;60471;52.150;4.508;2024-02-15T06:59:32;101145.69;;;12.80;100.00
72465;BME280;60471;52.150;4.508;2024-02-15T07:01:59;101165.94;;;12.81;100.00
72465;BME280;60471;52.150;4.508;2024-02-15T07:04:30;101171.94;;;12.84;100.00
72465;BME280;60471;52.150;4.508;2024-02-15T07:06:58;101161.81;;;12.75;100.00
72465;BME280;60471;52.150;4.508;2024-02-15T07:09:26;101161.19;;;12.87;100.00
72465;BME280;60471;52.150;4.508;2024-02-15T07:11:53;101157.84;;;12.84;100.00
72465;BME280;60471;52.150;4.508;2024-02-15T07:14:19;101163.16;;;12.66;100.00
72465;BME280;60471;52.150;4.508;2024-02-15T07:16:47;101156.84;;;12.69;100.00
72465;BME280;60471;52.150;4.508;2024-02-15T07:19:14;101129.38;;;12.71;100.00
72465;BME280;60471;52.150;4.508;2024-02-15T07:21:42;101142.25;;;12.77;100.00
72465;BME280;60471;52.150;4.508;2024-02-15T07:24:08;101147.56;;;12.77;100.00
72465;BME280;60471;52.150;4.508;2024-02-15T07:26:35;101152.34;;;12.71;100.00
72465;BME280;60471;52.150;4.508;2024-02-15T07:29:02;101162.00;;;12.72;100.00
72465;BME280;60471;52.150;4.508;2024-02-15T07:31:32;101137.13;;;12.74;100.00
72465;BME280;60471;52.150;4.508;2024-02-15T07:34:01;101137.22;;;12.73;100.00
72465;BME280;60471;52.150;4.508;2024-02-15T07:36:29;101140.63;;;12.75;100.00
72465;BME280;60471;52.150;4.508;2024-02-15T07:38:56;101145.78;;;12.78;100.00
72465;BME280;60471;52.150;4.508;2024-02-15T07:41:26;101139.69;;;12.76;100.00
72465;BME280;60471;52.150;4.508;2024-02-15T07:43:53;101141.59;;;12.74;100.00
72465;BME280;60471;52.150;4.508;2024-02-15T07:46:21;101135.94;;;12.80;100.00
72465;BME280;60471;52.150;4.508;2024-02-15T07:48:48;101135.34;;;12.75;100.00
72465;BME280;60471;52.150;4.508;2024-02-15T07:51:19;101135.34;;;12.75;100.00
72465;BME280;60471;52.150;4.508;2024-02-15T07:53:48;101138.00;;;12.75;100.00
72465;BME280;60471;52.150;4.508;2024-02-15T07:56:16;101134.41;;;12.76;100.00
72465;BME280;60471;52.150;4.508;2024-02-15T07:58:44;101135.03;;;12.81;100.00
72465;BME280;60471;52.150;4.508;2024-02-15T08:01:16;101138.00;;;12.75;100.00
72465;BME280;60471;52.150;4.508;2024-02-15T08:03:42;101120.91;;;12.81;100.00
72465;BME280;60471;52.150;4.508;2024-02-15T08:06:11;101122.66;;;12.82;100.00
72465;BME280;60471;52.150;4.508;2024-02-15T08:08:40;101133.03;;;13.02;100.00
72465;BME280;60471;52.150;4.508;2024-02-15T08:11:08;101138.19;;;12.88;100.00
72465;BME280;60471;52.150;4.508;2024-02-15T08:13:44;101128.06;;;12.96;100.00
72465;BME280;60471;52.150;4.508;2024-02-15T08:16:16;101133.59;;;12.91;100.00
72465;BME280;60471;52.150;4.508;2024-02-15T08:18:46;101134.53;;;12.90;100.00
72465;BME280;60471;52.150;4.508;2024-02-15T08:21:12;101127.59;;;12.88;100.00
72465;BME280;60471;52.150;4.508;2024-02-15T08:23:39;101132.69;;;12.92;100.00
72465;BME280;60471;52.150;4.508;2024-02-15T08:26:05;101121.28;;;12.90;100.00
72465;BME280;60471;52.150;4.508;2024-02-15T08:28:31;101136.19;;;12.93;100.00
72465;BME280;60471;52.150;4.508;2024-02-15T08:30:57;101136.41;;;12.88;100.00
72465;BME280;60471;52.150;4.508;2024-02-15T08:33:24;101148.97;;;12.85;100.00
72465;BME280;60471;52.150;4.508;2024-02-15T08:35:54;101144.34;;;12.88;100.00
72465;BME280;60471;52.150;4.508;2024-02-15T08:38:24;101145.97;;;12.91;100.00
72465;BME280;60471;52.150;4.508;2024-02-15T08:40:51;101135.25;;;12.76;100.00
72465;BME280;60471;52.150;4.508;2024-02-15T08:43:17;101132.06;;;12.87;100.00
72465;BME280;60471;52.150;4.508;2024-02-15T08:45:43;101137.34;;;12.87;100.00
72465;BME280;60471;52.150;4.508;2024-02-15T08:48:10;101126.44;;;12.93;100.00
72465;BME280;60471;52.150;4.508;2024-02-15T08:50:38;101128.91;;;12.96;100.00
72465;BME280;60471;52.150;4.508;2024-02-15T08:53:05;101125.16;;;13.00;100.00
72465;BME280;60471;52.150;4.508;2024-02-15T08:55:32;101129.88;;;12.95;100.00
72465;BME280;60471;52.150;4.508;2024-02-15T08:58:01;101126.34;;;12.95;100.00
72465;BME280;60471;52.150;4.508;2024-02-15T09:00:28;101122.50;;;13.00;100.00
72465;BME280;60471;52.150;4.508;2024-02-15T09:02:54;101113.97;;;12.95;100.00
72465;BME280;60471;52.150;4.508;2024-02-15T09:05:23;101116.22;;;13.03;100.00
72465;BME280;60471;52.150;4.508;2024-02-15T09:07:50;101120.72;;;13.01;100.00
72465;BME280;60471;52.150;4.508;2024-02-15T09:10:17;101110.91;;;13.03;100.00
72465;BME280;60471;52.150;4.508;2024-02-15T09:12:45;101115.97;;;13.07;100.00
72465;BME280;60471;52.150;4.508;2024-02-15T09:15:15;101107.66;;;12.98;100.00
72465;BME280;60471;52.150;4.508;2024-02-15T09:17:42;101104.88;;;13.17;100.00
72465;BME280;60471;52.150;4.508;2024-02-15T09:20:11;101115.63;;;13.14;100.00
72465;BME280;60471;52.150;4.508;2024-02-15T09:22:47;101104.50;;;13.24;100.00
72465;BME280;60471;52.150;4.508;2024-02-15T09:25:14;101121.31;;;13.23;100.00
72465;BME280;60471;52.150;4.508;2024-02-15T09:27:42;101123.72;;;13.28;100.00
72465;BME280;60471;52.150;4.508;2024-02-15T09:30:09;101118.50;;;13.26;100.00
72465;BME280;60471;52.150;4.508;2024-02-15T09:32:36;101106.13;;;13.27;100.00
72465;BME280;60471;52.150;4.508;2024-02-15T09:35:04;101114.75;;;13.30;100.00
72465;BME280;60471;52.150;4.508;2024-02-15T09:37:37;101101.84;;;13.40;100.00
72465;BME280;60471;52.150;4.508;2024-02-15T09:40:12;101107.41;;;13.36;100.00
72465;BME280;60471;52.150;4.508;2024-02-15T09:42:41;101112.25;;;13.43;100.00
72465;BME280;60471;52.150;4.508;2024-02-15T09:45:08;101108.16;;;13.38;100.00
72465;BME280;60471;52.150;4.508;2024-02-15T09:47:42;101114.41;;;13.37;100.00
72465;BME280;60471;52.150;4.508;2024-02-15T09:50:11;101093.78;;;13.42;100.00
72465;BME280;60471;52.150;4.508;2024-02-15T09:52:42;101100.38;;;13.50;100.00
72465;BME280;60471;52.150;4.508;2024-02-15T09:55:11;101112.03;;;13.48;100.00
72465;BME280;60471;52.150;4.508;2024-02-15T09:57:41;101102.00;;;13.53;100.00
72465;BME280;60471;52.150;4.508;2024-02-15T10:00:10;101114.59;;;13.49;100.00
72465;BME280;60471;52.150;4.508;2024-02-15T10:02:40;101110.22;;;13.48;100.00
72465;BME280;60471;52.150;4.508;2024-02-15T10:05:11;101105.88;;;13.47;100.00
72465;BME280;60471;52.150;4.508;2024-02-15T10:07:41;101101.69;;;13.59;100.00
72465;BME280;60471;52.150;4.508;2024-02-15T10:10:22;101104.31;;;13.75;100.00
72465;BME280;60471;52.150;4.508;2024-02-15T10:12:54;101107.75;;;13.61;100.00
72465;BME280;60471;52.150;4.508;2024-02-15T10:15:28;101109.63;;;13.59;100.00
72465;BME280;60471;52.150;4.508;2024-02-15T10:17:58;101103.03;;;13.82;100.00
72465;BME280;60471;52.150;4.508;2024-02-15T10:20:25;101109.13;;;13.68;100.00
72465;BME280;60471;52.150;4.508;2024-02-15T10:25:43;101096.97;;;13.80;100.00
72465;BME280;60471;52.150;4.508;2024-02-15T10:28:14;101109.50;;;13.92;100.00
72465;BME280;60471;52.150;4.508;2024-02-15T10:30:49;101094.63;;;13.89;100.00
72465;BME280;60471;52.150;4.508;2024-02-15T10:33:29;101108.56;;;13.93;100.00
72465;BME280;60471;52.150;4.508;2024-02-15T10:36:08;101098.53;;;13.98;100.00
72465;BME280;60471;52.150;4.508;2024-02-15T10:38:37;101104.13;;;13.93;100.00
72465;BME280;60471;52.150;4.508;2024-02-15T10:41:04;101095.78;;;14.00;100.00
72465;BME280;60471;52.150;4.508;2024-02-15T10:43:36;101094.16;;;14.13;100.00
72465;BME280;60471;52.150;4.508;2024-02-15T10:46:05;101093.13;;;14.30;100.00
72465;BME280;60471;52.150;4.508;2024-02-15T10:48:36;101084.69;;;14.23;100.00
72465;BME280;60471;52.150;4.508;2024-02-15T10:51:03;101116.72;;;14.20;100.00
72465;BME280;60471;52.150;4.508;2024-02-15T10:53:39;101081.78;;;14.42;100.00
72465;BME280;60471;52.150;4.508;2024-02-15T10:56:22;101087.28;;;14.55;100.00
72465;BME280;60471;52.150;4.508;2024-02-15T11:01:57;101079.41;;;14.67;100.00
72465;BME280;60471;52.150;4.508;2024-02-15T11:04:27;101076.34;;;14.73;100.00
72465;BME280;60471;52.150;4.508;2024-02-15T11:07:03;101073.41;;;14.64;100.00
72465;BME280;60471;52.150;4.508;2024-02-15T11:09:32;101066.78;;;14.57;100.00
72465;BME280;60471;52.150;4.508;2024-02-15T11:11:59;101070.69;;;14.79;100.00
72465;BME280;60471;52.150;4.508;2024-02-15T11:14:30;101069.34;;;14.58;100.00
72465;BME280;60471;52.150;4.508;2024-02-15T11:17:01;101072.69;;;14.90;100.00
72465;BME280;60471;52.150;4.508;2024-02-15T11:22:01;101073.75;;;15.29;100.00
72465;BME280;60471;52.150;4.508;2024-02-15T11:24:35;101067.63;;;15.14;100.00
72465;BME280;60471;52.150;4.508;2024-02-15T11:27:03;101054.06;;;15.60;100.00
72465;BME280;60471;52.150;4.508;2024-02-15T11:29:49;101059.63;;;15.70;100.00
72465;BME280;60471;52.150;4.508;2024-02-15T11:32:46;101047.84;;;15.59;100.00
72465;BME280;60471;52.150;4.508;2024-02-15T11:35:19;101028.00;;;16.05;100.00
72465;BME280;60471;52.150;4.508;2024-02-15T11:37:50;101033.72;;;16.51;100.00
72465;BME280;60471;52.150;4.508;2024-02-15T11:40:17;101024.84;;;16.89;100.00
72465;BME280;60471;52.150;4.508;2024-02-15T11:42:45;101037.06;;;17.04;100.00
72465;BME280;60471;52.150;4.508;2024-02-15T11:45:12;101027.66;;;16.74;100.00
72465;BME280;60471;52.150;4.508;2024-02-15T11:47:39;101020.50;;;16.62;100.00
72465;BME280;60471;52.150;4.508;2024-02-15T11:50:14;101022.19;;;16.76;100.00
72465;BME280;60471;52.150;4.508;2024-02-15T11:52:41;101019.66;;;16.74;100.00
72465;BME280;60471;52.150;4.508;2024-02-15T11:55:12;101017.50;;;16.41;100.00
72465;BME280;60471;52.150;4.508;2024-02-15T11:57:42;101015.81;;;16.40;100.00
72465;BME280;60471;52.150;4.508;2024-02-15T12:00:23;101016.44;;;16.57;100.00
72465;BME280;60471;52.150;4.508;2024-02-15T12:03:09;101009.06;;;16.60;100.00
72465;BME280;60471;52.150;4.508;2024-02-15T12:05:55;100996.75;;;17.08;100.00
72465;BME280;60471;52.150;4.508;2024-02-15T12:08:40;101002.56;;;16.90;100.00
72465;BME280;60471;52.150;4.508;2024-02-15T12:11:28;101001.34;;;17.06;100.00
72465;BME280;60471;52.150;4.508;2024-02-15T12:14:14;101003.59;;;17.00;100.00
72465;BME280;60471;52.150;4.508;2024-02-15T12:17:04;101008.94;;;17.00;100.00
72465;BME280;60471;52.150;4.508;2024-02-15T12:19:52;101003.38;;;17.03;100.00
72465;BME280;60471;52.150;4.508;2024-02-15T12:24:59;100997.53;;;18.62;100.00
72465;BME280;60471;52.150;4.508;2024-02-15T12:27:29;100983.78;;;20.80;100.00
72465;BME280;60471;52.150;4.508;2024-02-15T12:29:57;100975.69;;;20.70;100.00
72465;BME280;60471;52.150;4.508;2024-02-15T12:32:25;100962.78;;;20.03;100.00
72465;BME280;60471;52.150;4.508;2024-02-15T12:34:53;100956.09;;;20.18;100.00
72465;BME280;60471;52.150;4.508;2024-02-15T12:37:46;100955.06;;;21.11;100.00
72465;BME280;60471;52.150;4.508;2024-02-15T12:40:16;100961.47;;;21.49;100.00
72465;BME280;60471;52.150;4.508;2024-02-15T12:42:44;100940.72;;;21.51;100.00
72465;BME280;60471;52.150;4.508;2024-02-15T12:45:20;100942.66;;;21.87;100.00
72465;BME280;60471;52.150;4.508;2024-02-15T12:47:48;100946.81;;;21.72;100.00
72465;BME280;60471;52.150;4.508;2024-02-15T12:50:17;100940.66;;;22.93;100.00
72465;BME280;60471;52.150;4.508;2024-02-15T12:52:48;100922.88;;;24.15;100.00
72465;BME280;60471;52.150;4.508;2024-02-15T12:55:20;100929.88;;;23.99;100.00
72465;BME280;60471;52.150;4.508;2024-02-15T12:57:56;100926.00;;;24.62;100.00
72465;BME280;60471;52.150;4.508;2024-02-15T13:00:24;100926.38;;;25.26;100.00
72465;BME280;60471;52.150;4.508;2024-02-15T13:02:55;100916.94;;;23.85;100.00